sensor_id;sensor_type;location;lat;lon;timestamp;temperature;humidity
5842;DHT22;2947;52.276;9.946;2022-09-30T00:02:24;8.90;22.00
5842;DHT22;2947;52.276;9.946;2022-09-30T00:04:50;9.00;29.10
5842;DHT22;2947;52.276;9.946;2022-09-30T00:07:16;8.90;22.40
5842;DHT22;2947;52.276;9.946;2022-09-30T00:09:42;8.90;29.90
5842;DHT22;2947;52.276;9.946;2022-09-30T00:12:08;8.90;32.40
5842;DHT22;2947;52.276;9.946;2022-09-30T00:14:35;8.90;27.80
5842;DHT22;2947;52.276;9.946;2022-09-30T00:17:01;8.90;37.90
5842;DHT22;2947;52.276;9.946;2022-09-30T00:19:26;8.90;29.70
5842;DHT22;2947;52.276;9.946;2022-09-30T00:21:52;8.90;29.30
5842;DHT22;2947;52.276;9.946;2022-09-30T00:24:18;8.90;21.70
5842;DHT22;2947;52.276;9.946;2022-09-30T00:26:43;8.90;21.30
5842;DHT22;2947;52.276;9.946;2022-09-30T00:29:10;8.90;19.40
5842;DHT22;2947;52.276;9.946;2022-09-30T00:31:37;9.00;20.00
5842;DHT22;2947;52.276;9.946;2022-09-30T00:34:03;9.00;16.90
5842;DHT22;2947;52.276;9.946;2022-09-30T00:36:50;9.00;13.80
5842;DHT22;2947;52.276;9.946;2022-09-30T00:39:23;9.00;4.50
5842;DHT22;2947;52.276;9.946;2022-09-30T00:41:58;9.00;1.00
5842;DHT22;2947;52.276;9.946;2022-09-30T00:47:26;8.90;1.00
5842;DHT22;2947;52.276;9.946;2022-09-30T00:52:42;8.90;8.80
5842;DHT22;2947;52.276;9.946;2022-09-30T00:55:21;8.90;5.60
5842;DHT22;2947;52.276;9.946;2022-09-30T00:57:50;8.90;9.80
5842;DHT22;2947;52.276;9.946;2022-09-30T01:00:15;8.90;1.00
5842;DHT22;2947;52.276;9.946;2022-09-30T01:02:41;8.80;1.00
5842;DHT22;2947;52.276;9.946;2022-09-30T01:05:07;8.90;1.00
5842;DHT22;2947;52.276;9.946;2022-09-30T01:07:34;8.80;1.00
5842;DHT22;2947;52.276;9.946;2022-09-30T01:10:00;8.70;1.00
5842;DHT22;2947;52.276;9.946;2022-09-30T01:12:27;8.70;1.00
5842;DHT22;2947;52.276;9.946;2022-09-30T01:14:54;8.70;1.00
5842;DHT22;2947;52.276;9.946;2022-09-30T01:34:16;8.50;11.10
5842;DHT22;2947;52.276;9.946;2022-09-30T01:39:53;8.50;1.00
5842;DHT22;2947;52.276;9.946;2022-09-30T01:42:55;8.50;1.00
5842;DHT22;2947;52.276;9.946;2022-09-30T01:51:18;8.30;1.00
5842;DHT22;2947;52.276;9.946;2022-09-30T01:54:02;8.20;8.90
5842;DHT22;2947;52.276;9.946;2022-09-30T01:56:48;8.20;4.20
5842;DHT22;2947;52.276;9.946;2022-09-30T01:59:26;8.20;1.00
5842;DHT22;2947;52.276;9.946;2022-09-30T02:02:23;8.20;5.30
5842;DHT22;2947;52.276;9.946;2022-09-30T02:04:56;8.10;16.80
5842;DHT22;2947;52.276;9.946;2022-09-30T02:07:37;8.00;29.30
5842;DHT22;2947;52.276;9.946;2022-09-30T02:10:14;7.90;41.80
5842;DHT22;2947;52.276;9.946;2022-09-30T02:12:47;7.90;54.40
5842;DHT22;2947;52.276;9.946;2022-09-30T02:15:20;7.80;63.30
5842;DHT22;2947;52.276;9.946;2022-09-30T02:18:11;8.70;50.40
5842;DHT22;2947;52.276;9.946;2022-09-30T02:20:47;7.70;67.90
5842;DHT22;2947;52.276;9.946;2022-09-30T02:23:51;7.50;80.00
5842;DHT22;2947;52.276;9.946;2022-09-30T02:26:24;7.50;73.00
5842;DHT22;2947;52.276;9.946;2022-09-30T02:29:07;7.40;99.90
5842;DHT22;2947;52.276;9.946;2022-09-30T02:31:42;7.30;99.90
5842;DHT22;2947;52.276;9.946;2022-09-30T02:34:26;7.20;99.90
5842;DHT22;2947;52.276;9.946;2022-09-30T02:37:11;7.10;99.90
5842;DHT22;2947;52.276;9.946;2022-09-30T02:40:15;7.10;99.90
5842;DHT22;2947;52.276;9.946;2022-09-30T02:42:48;7.00;99.90
5842;DHT22;2947;52.276;9.946;2022-09-30T02:45:17;7.00;99.90
5842;DHT22;2947;52.276;9.946;2022-09-30T02:50:46;7.00;99.90
5842;DHT22;2947;52.276;9.946;2022-09-30T02:53:25;7.00;99.90
5842;DHT22;2947;52.276;9.946;2022-09-30T02:58:35;6.90;99.90
5842;DHT22;2947;52.276;9.946;2022-09-30T03:01:08;6.90;99.90
5842;DHT22;2947;52.276;9.946;2022-09-30T03:03:57;6.90;99.90
5842;DHT22;2947;52.276;9.946;2022-09-30T03:06:24;6.90;99.90
5842;DHT22;2947;52.276;9.946;2022-09-30T03:08:51;6.90;99.90
5842;DHT22;2947;52.276;9.946;2022-09-30T03:11:21;6.90;99.90
5842;DHT22;2947;52.276;9.946;2022-09-30T03:16:44;6.80;99.90
5842;DHT22;2947;52.276;9.946;2022-09-30T03:25:14;6.80;99.90
5842;DHT22;2947;52.276;9.946;2022-09-30T03:34:24;6.90;99.90
5842;DHT22;2947;52.276;9.946;2022-09-30T03:42:54;6.90;99.90
5842;DHT22;2947;52.276;9.946;2022-09-30T03:45:34;6.90;99.90
5842;DHT22;2947;52.276;9.946;2022-09-30T03:48:08;6.90;99.90
5842;DHT22;2947;52.276;9.946;2022-09-30T03:50:35;6.90;99.90
5842;DHT22;2947;52.276;9.946;2022-09-30T03:53:02;6.80;99.90
5842;DHT22;2947;52.276;9.946;2022-09-30T03:55:29;6.80;99.90
5842;DHT22;2947;52.276;9.946;2022-09-30T03:57:57;6.80;99.90
5842;DHT22;2947;52.276;9.946;2022-09-30T04:00:23;6.80;99.90
5842;DHT22;2947;52.276;9.946;2022-09-30T04:02:49;6.70;99.90
5842;DHT22;2947;52.276;9.946;2022-09-30T04:05:14;8.30;99.90
5842;DHT22;2947;52.276;9.946;2022-09-30T04:07:40;6.60;99.90
5842;DHT22;2947;52.276;9.946;2022-09-30T04:10:06;6.50;99.90
5842;DHT22;2947;52.276;9.946;2022-09-30T04:12:32;6.40;99.90
5842;DHT22;2947;52.276;9.946;2022-09-30T04:14:58;6.50;99.90
5842;DHT22;2947;52.276;9.946;2022-09-30T04:17:23;6.40;99.90
5842;DHT22;2947;52.276;9.946;2022-09-30T04:19:49;6.40;99.90
5842;DHT22;2947;52.276;9.946;2022-09-30T04:22:15;7.40;99.90
5842;DHT22;2947;52.276;9.946;2022-09-30T04:24:41;6.40;99.90
5842;DHT22;2947;52.276;9.946;2022-09-30T04:27:08;6.40;99.90
5842;DHT22;2947;52.276;9.946;2022-09-30T04:29:33;6.50;99.90
5842;DHT22;2947;52.276;9.946;2022-09-30T04:31:59;6.50;99.90
5842;DHT22;2947;52.276;9.946;2022-09-30T04:34:25;6.50;99.90
5842;DHT22;2947;52.276;9.946;2022-09-30T04:36:50;6.60;99.90
5842;DHT22;2947;52.276;9.946;2022-09-30T04:39:16;6.60;99.90
5842;DHT22;2947;52.276;9.946;2022-09-30T04:41:42;6.60;99.90
5842;DHT22;2947;52.276;9.946;2022-09-30T04:44:08;6.50;99.90
5842;DHT22;2947;52.276;9.946;2022-09-30T04:46:35;6.50;99.90
5842;DHT22;2947;52.276;9.946;2022-09-30T04:49:02;6.50;99.90
5842;DHT22;2947;52.276;9.946;2022-09-30T04:51:28;6.50;99.90
5842;DHT22;2947;52.276;9.946;2022-09-30T04:53:54;6.60;99.90
5842;DHT22;2947;52.276;9.946;2022-09-30T04:56:20;6.60;99.90
5842;DHT22;2947;52.276;9.946;2022-09-30T04:58:47;6.60;99.90
5842;DHT22;2947;52.276;9.946;2022-09-30T05:01:15;6.60;99.90
5842;DHT22;2947;52.276;9.946;2022-09-30T05:03:42;6.60;99.90
5842;DHT22;2947;52.276;9.946;2022-09-30T05:06:12;6.60;99.90
5842;DHT22;2947;52.276;9.946;2022-09-30T05:08:38;6.60;99.90
5842;DHT22;2947;52.276;9.946;2022-09-30T05:11:07;8.20;99.90
5842;DHT22;2947;52.276;9.946;2022-09-30T05:13:36;7.80;99.90
5842;DHT22;2947;52.276;9.946;2022-09-30T05:16:04;6.60;99.90
5842;DHT22;2947;52.276;9.946;2022-09-30T05:18:31;6.60;99.90
5842;DHT22;2947;52.276;9.946;2022-09-30T05:21:01;6.60;99.90
5842;DHT22;2947;52.276;9.946;2022-09-30T05:23:29;6.60;99.90
5842;DHT22;2947;52.276;9.946;2022-09-30T05:25:57;6.50;99.90
5842;DHT22;2947;52.276;9.946;2022-09-30T05:28:23;6.50;99.90
5842;DHT22;2947;52.276;9.946;2022-09-30T05:30:57;6.40;99.90
5842;DHT22;2947;52.276;9.946;2022-09-30T05:33:25;6.30;99.90
5842;DHT22;2947;52.276;9.946;2022-09-30T05:35:51;6.40;99.90
5842;DHT22;2947;52.276;9.946;2022-09-30T05:38:17;6.30;99.90
5842;DHT22;2947;52.276;9.946;2022-09-30T05:40:43;6.30;99.90
5842;DHT22;2947;52.276;9.946;2022-09-30T05:43:08;6.20;99.90
5842;DHT22;2947;52.276;9.946;2022-09-30T05:45:34;6.30;99.90
5842;DHT22;2947;52.276;9.946;2022-09-30T05:48:00;6.30;99.90
5842;DHT22;2947;52.276;9.946;2022-09-30T05:50:26;6.30;99.90
5842;DHT22;2947;52.276;9.946;2022-09-30T05:52:52;6.40;99.90
5842;DHT22;2947;52.276;9.946;2022-09-30T05:55:19;6.40;99.90
5842;DHT22;2947;52.276;9.946;2022-09-30T05:57:48;6.50;99.90
5842;DHT22;2947;52.276;9.946;2022-09-30T06:00:16;6.50;99.90
5842;DHT22;2947;52.276;9.946;2022-09-30T06:02:42;6.60;99.90
5842;DHT22;2947;52.276;9.946;2022-09-30T06:05:10;6.60;99.90
5842;DHT22;2947;52.276;9.946;2022-09-30T06:07:37;6.70;99.90
5842;DHT22;2947;52.276;9.946;2022-09-30T06:10:04;6.70;99.90
5842;DHT22;2947;52.276;9.946;2022-09-30T06:12:33;6.70;99.90
5842;DHT22;2947;52.276;9.946;2022-09-30T06:15:00;7.00;99.90
5842;DHT22;2947;52.276;9.946;2022-09-30T06:17:26;6.10;99.90
5842;DHT22;2947;52.276;9.946;2022-09-30T06:19:51;6.80;99.90
5842;DHT22;2947;52.276;9.946;2022-09-30T06:22:17;6.90;99.90
5842;DHT22;2947;52.276;9.946;2022-09-30T06:24:44;7.00;99.90
5842;DHT22;2947;52.276;9.946;2022-09-30T06:27:10;7.00;99.90
5842;DHT22;2947;52.276;9.946;2022-09-30T06:29:37;7.10;99.90
5842;DHT22;2947;52.276;9.946;2022-09-30T06:32:03;7.10;99.90
5842;DHT22;2947;52.276;9.946;2022-09-30T06:34:28;7.20;99.90
5842;DHT22;2947;52.276;9.946;2022-09-30T06:36:54;7.30;99.90
5842;DHT22;2947;52.276;9.946;2022-09-30T06:39:20;7.30;99.90
5842;DHT22;2947;52.276;9.946;2022-09-30T06:41:46;7.50;99.90
5842;DHT22;2947;52.276;9.946;2022-09-30T06:44:11;7.50;99.90
5842;DHT22;2947;52.276;9.946;2022-09-30T06:46:38;7.50;99.90
5842;DHT22;2947;52.276;9.946;2022-09-30T06:49:04;7.60;99.90
5842;DHT22;2947;52.276;9.946;2022-09-30T06:51:31;7.60;99.90
5842;DHT22;2947;52.276;9.946;2022-09-30T06:54:00;7.70;99.90
5842;DHT22;2947;52.276;9.946;2022-09-30T06:56:27;7.80;99.90
5842;DHT22;2947;52.276;9.946;2022-09-30T06:58:53;7.90;99.90
5842;DHT22;2947;52.276;9.946;2022-09-30T07:01:21;8.00;99.90
5842;DHT22;2947;52.276;9.946;2022-09-30T07:03:49;8.00;99.90
5842;DHT22;2947;52.276;9.946;2022-09-30T07:06:22;8.10;99.90
5842;DHT22;2947;52.276;9.946;2022-09-30T07:08:50;8.10;99.90
5842;DHT22;2947;52.276;9.946;2022-09-30T07:11:16;8.20;99.90
5842;DHT22;2947;52.276;9.946;2022-09-30T07:13:46;8.30;99.90
5842;DHT22;2947;52.276;9.946;2022-09-30T07:16:14;8.40;99.90
5842;DHT22;2947;52.276;9.946;2022-09-30T07:18:42;8.40;99.90
5842;DHT22;2947;52.276;9.946;2022-09-30T07:21:09;8.60;99.90
5842;DHT22;2947;52.276;9.946;2022-09-30T07:23:36;8.70;99.90
5842;DHT22;2947;52.276;9.946;2022-09-30T07:26:03;8.80;99.90
5842;DHT22;2947;52.276;9.946;2022-09-30T07:28:33;8.20;99.90
5842;DHT22;2947;52.276;9.946;2022-09-30T07:31:05;8.90;99.90
5842;DHT22;2947;52.276;9.946;2022-09-30T07:33:33;9.10;99.90
5842;DHT22;2947;52.276;9.946;2022-09-30T07:36:00;9.10;99.90
5842;DHT22;2947;52.276;9.946;2022-09-30T07:38:29;9.20;99.90
5842;DHT22;2947;52.276;9.946;2022-09-30T07:41:01;9.40;99.90
5842;DHT22;2947;52.276;9.946;2022-09-30T07:43:30;9.40;99.90
5842;DHT22;2947;52.276;9.946;2022-09-30T07:46:20;9.50;99.90
5842;DHT22;2947;52.276;9.946;2022-09-30T07:48:57;9.60;99.90
5842;DHT22;2947;52.276;9.946;2022-09-30T07:51:44;9.70;99.90
5842;DHT22;2947;52.276;9.946;2022-09-30T07:54:13;9.80;99.90
5842;DHT22;2947;52.276;9.946;2022-09-30T07:56:40;9.90;99.90
5842;DHT22;2947;52.276;9.946;2022-09-30T07:59:09;10.10;99.90
5842;DHT22;2947;52.276;9.946;2022-09-30T08:01:35;10.50;99.90
5842;DHT22;2947;52.276;9.946;2022-09-30T08:04:02;10.20;99.90
5842;DHT22;2947;52.276;9.946;2022-09-30T08:06:31;10.30;99.90
5842;DHT22;2947;52.276;9.946;2022-09-30T08:08:58;10.40;99.90
5842;DHT22;2947;52.276;9.946;2022-09-30T08:11:24;10.60;99.90
5842;DHT22;2947;52.276;9.946;2022-09-30T08:13:56;10.70;99.90
5842;DHT22;2947;52.276;9.946;2022-09-30T08:16:23;10.80;99.90
5842;DHT22;2947;52.276;9.946;2022-09-30T08:18:54;11.00;99.90
5842;DHT22;2947;52.276;9.946;2022-09-30T08:21:20;11.10;99.90
5842;DHT22;2947;52.276;9.946;2022-09-30T08:23:46;11.20;99.90
5842;DHT22;2947;52.276;9.946;2022-09-30T08:26:12;11.70;99.90
5842;DHT22;2947;52.276;9.946;2022-09-30T08:28:39;11.40;99.90
5842;DHT22;2947;52.276;9.946;2022-09-30T08:31:10;11.50;99.90
5842;DHT22;2947;52.276;9.946;2022-09-30T08:33:37;11.60;99.90
5842;DHT22;2947;52.276;9.946;2022-09-30T08:36:09;10.40;99.90
5842;DHT22;2947;52.276;9.946;2022-09-30T08:38:37;11.50;78.80
5842;DHT22;2947;52.276;9.946;2022-09-30T08:52:39;12.50;95.80
5842;DHT22;2947;52.276;9.946;2022-09-30T08:55:19;12.60;1.00
5842;DHT22;2947;52.276;9.946;2022-09-30T08:57:47;12.60;1.00
5842;DHT22;2947;52.276;9.946;2022-09-30T09:00:16;12.70;99.90
5842;DHT22;2947;52.276;9.946;2022-09-30T09:02:51;13.20;99.90
5842;DHT22;2947;52.276;9.946;2022-09-30T09:05:25;12.90;99.90
5842;DHT22;2947;52.276;9.946;2022-09-30T09:11:06;13.10;1.00
5842;DHT22;2947;52.276;9.946;2022-09-30T09:13:38;13.30;56.70
5842;DHT22;2947;52.276;9.946;2022-09-30T09:16:28;13.40;1.00
5842;DHT22;2947;52.276;9.946;2022-09-30T09:19:10;13.50;14.60
5842;DHT22;2947;52.276;9.946;2022-09-30T09:24:26;13.60;1.00
5842;DHT22;2947;52.276;9.946;2022-09-30T09:26:56;13.80;99.90
5842;DHT22;2947;52.276;9.946;2022-09-30T09:29:37;13.90;1.00
5842;DHT22;2947;52.276;9.946;2022-09-30T09:32:14;13.90;99.90
5842;DHT22;2947;52.276;9.946;2022-09-30T09:34:54;14.90;1.00
5842;DHT22;2947;52.276;9.946;2022-09-30T09:37:50;14.10;1.00
5842;DHT22;2947;52.276;9.946;2022-09-30T09:44:21;14.40;1.00
5842;DHT22;2947;52.276;9.946;2022-09-30T09:47:10;14.50;99.90
5842;DHT22;2947;52.276;9.946;2022-09-30T09:49:43;14.60;1.00
5842;DHT22;2947;52.276;9.946;2022-09-30T09:54:44;14.70;99.90
5842;DHT22;2947;52.276;9.946;2022-09-30T09:57:14;14.90;99.90
5842;DHT22;2947;52.276;9.946;2022-09-30T10:00:08;14.80;97.50
5842;DHT22;2947;52.276;9.946;2022-09-30T10:03:04;15.00;99.90
5842;DHT22;2947;52.276;9.946;2022-09-30T10:05:37;15.30;1.00
5842;DHT22;2947;52.276;9.946;2022-09-30T10:08:19;14.90;1.00
5842;DHT22;2947;52.276;9.946;2022-09-30T10:10:51;15.80;99.90
5842;DHT22;2947;52.276;9.946;2022-09-30T10:13:23;15.40;99.90
5842;DHT22;2947;52.276;9.946;2022-09-30T10:15:53;15.30;99.90
5842;DHT22;2947;52.276;9.946;2022-09-30T10:18:25;15.40;99.90
5842;DHT22;2947;52.276;9.946;2022-09-30T10:21:03;15.50;1.00
5842;DHT22;2947;52.276;9.946;2022-09-30T10:23:35;15.50;1.00
5842;DHT22;2947;52.276;9.946;2022-09-30T10:26:21;15.80;99.90
5842;DHT22;2947;52.276;9.946;2022-09-30T10:28:57;15.70;99.90
5842;DHT22;2947;52.276;9.946;2022-09-30T10:31:26;15.90;99.90
5842;DHT22;2947;52.276;9.946;2022-09-30T10:33:58;16.20;99.90
5842;DHT22;2947;52.276;9.946;2022-09-30T10:36:31;16.20;99.90
5842;DHT22;2947;52.276;9.946;2022-09-30T10:39:43;16.40;99.90
5842;DHT22;2947;52.276;9.946;2022-09-30T10:41:44;16.20;47.30
5842;DHT22;2947;52.276;9.946;2022-09-30T10:44:17;16.20;1.00
5842;DHT22;2947;52.276;9.946;2022-09-30T10:46:47;16.30;26.50
5842;DHT22;2947;52.276;9.946;2022-09-30T10:49:27;16.50;99.90
5842;DHT22;2947;52.276;9.946;2022-09-30T10:51:56;16.60;1.00
5842;DHT22;2947;52.276;9.946;2022-09-30T10:57:04;16.70;1.00
5842;DHT22;2947;52.276;9.946;2022-09-30T10:59:38;16.80;1.00
5842;DHT22;2947;52.276;9.946;2022-09-30T11:02:20;16.90;1.00
5842;DHT22;2947;52.276;9.946;2022-09-30T11:05:23;16.90;1.00
5842;DHT22;2947;52.276;9.946;2022-09-30T11:08:01;17.10;1.00
5842;DHT22;2947;52.276;9.946;2022-09-30T11:10:52;17.20;1.00
5842;DHT22;2947;52.276;9.946;2022-09-30T11:13:38;17.20;1.00
5842;DHT22;2947;52.276;9.946;2022-09-30T11:37:57;17.40;99.90
5842;DHT22;2947;52.276;9.946;2022-09-30T11:40:56;17.40;99.90
5842;DHT22;2947;52.276;9.946;2022-09-30T11:55:36;18.40;99.90
5842;DHT22;2947;52.276;9.946;2022-09-30T11:58:13;19.00;99.90
5842;DHT22;2947;52.276;9.946;2022-09-30T12:00:45;18.70;99.90
5842;DHT22;2947;52.276;9.946;2022-09-30T12:03:26;18.50;99.90
5842;DHT22;2947;52.276;9.946;2022-09-30T12:06:01;18.50;99.90
5842;DHT22;2947;52.276;9.946;2022-09-30T12:08:48;19.30;99.90
5842;DHT22;2947;52.276;9.946;2022-09-30T12:11:27;18.30;99.90
5842;DHT22;2947;52.276;9.946;2022-09-30T12:14:08;18.10;99.90
5842;DHT22;2947;52.276;9.946;2022-09-30T12:16:38;18.00;99.90
5842;DHT22;2947;52.276;9.946;2022-09-30T12:19:21;18.20;99.90
5842;DHT22;2947;52.276;9.946;2022-09-30T12:22:45;18.20;99.90
5842;DHT22;2947;52.276;9.946;2022-09-30T12:25:15;17.10;99.90
5842;DHT22;2947;52.276;9.946;2022-09-30T12:27:56;18.00;99.90
5842;DHT22;2947;52.276;9.946;2022-09-30T12:30:48;18.10;99.90
5842;DHT22;2947;52.276;9.946;2022-09-30T12:33:49;18.10;99.90
5842;DHT22;2947;52.276;9.946;2022-09-30T12:44:52;18.10;99.90
5842;DHT22;2947;52.276;9.946;2022-09-30T12:47:51;18.30;99.90
5842;DHT22;2947;52.276;9.946;2022-09-30T12:50:26;18.20;99.90
5842;DHT22;2947;52.276;9.946;2022-09-30T12:52:55;18.30;99.90
5842;DHT22;2947;52.276;9.946;2022-09-30T12:57:58;18.10;99.90
5842;DHT22;2947;52.276;9.946;2022-09-30T13:00:28;18.00;99.90
5842;DHT22;2947;52.276;9.946;2022-09-30T13:03:08;17.70;99.90
5842;DHT22;2947;52.276;9.946;2022-09-30T13:10:44;17.90;99.90
5842;DHT22;2947;52.276;9.946;2022-09-30T13:13:27;17.80;99.90
5842;DHT22;2947;52.276;9.946;2022-09-30T13:15:57;17.60;99.90
5842;DHT22;2947;52.276;9.946;2022-09-30T13:28:50;17.30;99.90
5842;DHT22;2947;52.276;9.946;2022-09-30T13:31:18;17.30;99.90
5842;DHT22;2947;52.276;9.946;2022-09-30T13:36:43;17.30;99.90
5842;DHT22;2947;52.276;9.946;2022-09-30T13:42:20;18.80;99.90
5842;DHT22;2947;52.276;9.946;2022-09-30T13:45:08;17.40;99.90
5842;DHT22;2947;52.276;9.946;2022-09-30T13:50:28;17.30;99.90
5842;DHT22;2947;52.276;9.946;2022-09-30T13:53:00;17.20;99.90
5842;DHT22;2947;52.276;9.946;2022-09-30T13:55:39;17.90;99.90
5842;DHT22;2947;52.276;9.946;2022-09-30T13:58:34;17.00;99.90
5842;DHT22;2947;52.276;9.946;2022-09-30T14:10:37;16.90;99.90
5842;DHT22;2947;52.276;9.946;2022-09-30T14:16:34;16.90;99.90
5842;DHT22;2947;52.276;9.946;2022-09-30T14:22:02;16.90;99.90
5842;DHT22;2947;52.276;9.946;2022-09-30T14:24:33;16.90;99.90
5842;DHT22;2947;52.276;9.946;2022-09-30T14:27:40;16.90;99.90
5842;DHT22;2947;52.276;9.946;2022-09-30T14:30:23;16.90;99.90
5842;DHT22;2947;52.276;9.946;2022-09-30T14:35:22;16.80;99.90
5842;DHT22;2947;52.276;9.946;2022-09-30T14:37:53;16.70;99.90
5842;DHT22;2947;52.276;9.946;2022-09-30T14:40:28;16.70;99.90
5842;DHT22;2947;52.276;9.946;2022-09-30T14:43:04;16.70;99.90
5842;DHT22;2947;52.276;9.946;2022-09-30T14:45:34;16.70;99.90
5842;DHT22;2947;52.276;9.946;2022-09-30T14:48:10;16.70;99.90
5842;DHT22;2947;52.276;9.946;2022-09-30T14:50:51;16.70;99.90
5842;DHT22;2947;52.276;9.946;2022-09-30T14:55:56;16.60;99.90
5842;DHT22;2947;52.276;9.946;2022-09-30T14:58:36;16.50;99.90
5842;DHT22;2947;52.276;9.946;2022-09-30T15:01:13;16.50;99.90
5842;DHT22;2947;52.276;9.946;2022-09-30T15:03:47;15.90;99.90
5842;DHT22;2947;52.276;9.946;2022-09-30T15:06:27;17.60;99.90
5842;DHT22;2947;52.276;9.946;2022-09-30T15:09:04;16.40;99.90
5842;DHT22;2947;52.276;9.946;2022-09-30T15:11:32;16.40;99.90
5842;DHT22;2947;52.276;9.946;2022-09-30T15:14:04;16.40;99.90
5842;DHT22;2947;52.276;9.946;2022-09-30T15:16:32;16.40;99.90
5842;DHT22;2947;52.276;9.946;2022-09-30T15:18:59;16.30;99.90
5842;DHT22;2947;52.276;9.946;2022-09-30T15:21:27;17.20;99.90
5842;DHT22;2947;52.276;9.946;2022-09-30T15:23:57;17.10;99.90
5842;DHT22;2947;52.276;9.946;2022-09-30T15:26:24;16.30;99.90
5842;DHT22;2947;52.276;9.946;2022-09-30T15:28:51;16.30;99.90
5842;DHT22;2947;52.276;9.946;2022-09-30T15:31:27;16.20;99.90
5842;DHT22;2947;52.276;9.946;2022-09-30T15:34:21;16.10;99.90
5842;DHT22;2947;52.276;9.946;2022-09-30T15:36:54;16.20;99.90
5842;DHT22;2947;52.276;9.946;2022-09-30T15:39:27;16.00;99.90
5842;DHT22;2947;52.276;9.946;2022-09-30T15:42:13;16.00;99.90
5842;DHT22;2947;52.276;9.946;2022-09-30T15:44:52;17.20;99.90
5842;DHT22;2947;52.276;9.946;2022-09-30T15:47:17;16.00;99.90
5842;DHT22;2947;52.276;9.946;2022-09-30T15:49:46;16.00;99.90
5842;DHT22;2947;52.276;9.946;2022-09-30T15:52:35;15.90;99.90
5842;DHT22;2947;52.276;9.946;2022-09-30T15:55:34;16.00;99.90
5842;DHT22;2947;52.276;9.946;2022-09-30T15:58:02;15.90;99.90
5842;DHT22;2947;52.276;9.946;2022-09-30T16:00:33;15.90;99.90
5842;DHT22;2947;52.276;9.946;2022-09-30T16:05:43;15.60;1.00
5842;DHT22;2947;52.276;9.946;2022-09-30T16:08:20;15.00;1.00
5842;DHT22;2947;52.276;9.946;2022-09-30T16:10:55;15.60;1.00
5842;DHT22;2947;52.276;9.946;2022-09-30T16:13:25;15.60;1.00
5842;DHT22;2947;52.276;9.946;2022-09-30T16:15:55;15.60;1.00
5842;DHT22;2947;52.276;9.946;2022-09-30T16:18:26;16.00;1.00
5842;DHT22;2947;52.276;9.946;2022-09-30T16:21:01;15.50;1.00
5842;DHT22;2947;52.276;9.946;2022-09-30T16:23:37;15.40;1.00
5842;DHT22;2947;52.276;9.946;2022-09-30T16:26:19;15.30;1.00
5842;DHT22;2947;52.276;9.946;2022-09-30T16:28:51;16.30;1.00
5842;DHT22;2947;52.276;9.946;2022-09-30T16:31:18;15.20;1.00
5842;DHT22;2947;52.276;9.946;2022-09-30T16:33:44;16.10;28.00
5842;DHT22;2947;52.276;9.946;2022-09-30T16:36:11;15.00;99.90
5842;DHT22;2947;52.276;9.946;2022-09-30T16:38:39;15.80;99.90
5842;DHT22;2947;52.276;9.946;2022-09-30T16:41:09;14.90;99.90
5842;DHT22;2947;52.276;9.946;2022-09-30T16:43:36;14.90;99.90
5842;DHT22;2947;52.276;9.946;2022-09-30T16:46:03;14.90;99.90
5842;DHT22;2947;52.276;9.946;2022-09-30T16:48:29;14.80;99.90
5842;DHT22;2947;52.276;9.946;2022-09-30T16:51:04;14.80;99.90
5842;DHT22;2947;52.276;9.946;2022-09-30T16:53:32;14.80;99.90
5842;DHT22;2947;52.276;9.946;2022-09-30T16:55:58;14.70;99.90
5842;DHT22;2947;52.276;9.946;2022-09-30T16:58:25;14.70;99.90
5842;DHT22;2947;52.276;9.946;2022-09-30T17:00:50;14.70;99.90
5842;DHT22;2947;52.276;9.946;2022-09-30T17:03:17;14.70;99.90
5842;DHT22;2947;52.276;9.946;2022-09-30T17:05:46;14.70;99.90
5842;DHT22;2947;52.276;9.946;2022-09-30T17:08:16;14.70;99.90
5842;DHT22;2947;52.276;9.946;2022-09-30T17:10:44;14.60;99.90
5842;DHT22;2947;52.276;9.946;2022-09-30T17:13:12;14.60;99.90
5842;DHT22;2947;52.276;9.946;2022-09-30T17:15:41;14.50;83.20
5842;DHT22;2947;52.276;9.946;2022-09-30T17:18:08;15.80;99.90
5842;DHT22;2947;52.276;9.946;2022-09-30T17:20:42;14.40;99.90
5842;DHT22;2947;52.276;9.946;2022-09-30T17:23:10;14.50;99.90
5842;DHT22;2947;52.276;9.946;2022-09-30T17:25:41;14.40;99.90
5842;DHT22;2947;52.276;9.946;2022-09-30T17:28:09;14.30;99.90
5842;DHT22;2947;52.276;9.946;2022-09-30T17:30:35;15.80;99.90
5842;DHT22;2947;52.276;9.946;2022-09-30T17:33:04;14.20;99.90
5842;DHT22;2947;52.276;9.946;2022-09-30T17:35:29;14.20;99.90
5842;DHT22;2947;52.276;9.946;2022-09-30T17:37:55;14.00;99.90
5842;DHT22;2947;52.276;9.946;2022-09-30T17:40:21;14.00;99.90
5842;DHT22;2947;52.276;9.946;2022-09-30T17:43:06;14.80;99.90
5842;DHT22;2947;52.276;9.946;2022-09-30T17:45:33;13.90;99.90
5842;DHT22;2947;52.276;9.946;2022-09-30T17:47:59;13.90;99.90
5842;DHT22;2947;52.276;9.946;2022-09-30T17:50:25;13.80;99.90
5842;DHT22;2947;52.276;9.946;2022-09-30T17:52:51;14.70;99.90
5842;DHT22;2947;52.276;9.946;2022-09-30T17:55:17;13.70;99.90
5842;DHT22;2947;52.276;9.946;2022-09-30T17:57:43;13.60;99.90
5842;DHT22;2947;52.276;9.946;2022-09-30T18:00:09;13.60;99.90
5842;DHT22;2947;52.276;9.946;2022-09-30T18:02:37;13.60;99.90
5842;DHT22;2947;52.276;9.946;2022-09-30T18:05:06;14.30;99.90
5842;DHT22;2947;52.276;9.946;2022-09-30T18:07:32;13.50;1.00
5842;DHT22;2947;52.276;9.946;2022-09-30T18:09:58;13.50;99.90
5842;DHT22;2947;52.276;9.946;2022-09-30T18:12:23;13.40;99.90
5842;DHT22;2947;52.276;9.946;2022-09-30T18:14:49;13.40;99.90
5842;DHT22;2947;52.276;9.946;2022-09-30T18:17:15;13.40;99.90
5842;DHT22;2947;52.276;9.946;2022-09-30T18:19:41;13.40;1.00
5842;DHT22;2947;52.276;9.946;2022-09-30T18:22:07;13.20;1.00
5842;DHT22;2947;52.276;9.946;2022-09-30T18:24:32;14.30;1.00
5842;DHT22;2947;52.276;9.946;2022-09-30T18:27:17;13.10;99.90
5842;DHT22;2947;52.276;9.946;2022-09-30T18:29:45;13.10;99.90
5842;DHT22;2947;52.276;9.946;2022-09-30T18:32:11;13.00;99.90
5842;DHT22;2947;52.276;9.946;2022-09-30T18:34:37;13.00;99.90
5842;DHT22;2947;52.276;9.946;2022-09-30T18:37:03;12.90;99.90
5842;DHT22;2947;52.276;9.946;2022-09-30T18:39:33;12.90;1.00
5842;DHT22;2947;52.276;9.946;2022-09-30T18:42:00;13.80;1.00
5842;DHT22;2947;52.276;9.946;2022-09-30T18:44:25;12.70;1.00
5842;DHT22;2947;52.276;9.946;2022-09-30T18:46:52;12.70;1.00
5842;DHT22;2947;52.276;9.946;2022-09-30T18:49:20;12.70;1.00
5842;DHT22;2947;52.276;9.946;2022-09-30T18:51:47;13.40;50.00
5842;DHT22;2947;52.276;9.946;2022-09-30T18:54:13;12.60;98.20
5842;DHT22;2947;52.276;9.946;2022-09-30T18:56:41;12.70;97.40
5842;DHT22;2947;52.276;9.946;2022-09-30T18:59:09;12.60;1.00
5842;DHT22;2947;52.276;9.946;2022-09-30T19:01:40;12.60;99.90
5842;DHT22;2947;52.276;9.946;2022-09-30T19:04:08;12.50;99.90
5842;DHT22;2947;52.276;9.946;2022-09-30T19:06:35;12.50;99.90
5842;DHT22;2947;52.276;9.946;2022-09-30T19:09:01;12.40;99.90
5842;DHT22;2947;52.276;9.946;2022-09-30T19:11:27;12.40;99.90
5842;DHT22;2947;52.276;9.946;2022-09-30T19:13:54;12.40;1.00
5842;DHT22;2947;52.276;9.946;2022-09-30T19:16:22;12.20;99.90
5842;DHT22;2947;52.276;9.946;2022-09-30T19:18:49;13.60;99.90
5842;DHT22;2947;52.276;9.946;2022-09-30T19:21:15;12.20;1.00
5842;DHT22;2947;52.276;9.946;2022-09-30T19:23:44;12.10;1.00
5842;DHT22;2947;52.276;9.946;2022-09-30T19:26:10;12.10;1.00
5842;DHT22;2947;52.276;9.946;2022-09-30T19:28:38;12.20;99.90
5842;DHT22;2947;52.276;9.946;2022-09-30T19:31:10;12.00;99.90
5842;DHT22;2947;52.276;9.946;2022-09-30T19:33:38;11.90;99.90
5842;DHT22;2947;52.276;9.946;2022-09-30T19:36:08;11.90;1.00
5842;DHT22;2947;52.276;9.946;2022-09-30T19:38:36;11.80;1.00
5842;DHT22;2947;52.276;9.946;2022-09-30T19:41:03;11.80;1.00